createdAt,value
2019-01-20T00:02:20.418Z,98256.34
2019-01-20T00:05:11.313Z,98256.80
2019-01-20T00:07:58.534Z,98251.39
2019-01-20T00:10:45.482Z,98252.62
2019-01-20T00:13:32.961Z,98248.22
2019-01-20T00:16:19.968Z,98248.14
2019-01-20T00:19:07.257Z,98249.22
2019-01-20T00:21:54.805Z,98248.19
2019-01-20T00:24:41.991Z,98249.05
2019-01-20T00:27:29.392Z,98245.45
2019-01-20T00:30:17.991Z,98241.52
2019-01-20T00:33:05.313Z,98241.56
2019-01-20T00:35:53.663Z,98243.77
2019-01-20T00:38:41.233Z,98241.03
2019-01-20T00:41:28.488Z,98242.89
2019-01-20T00:44:15.813Z,98240.55
2019-01-20T00:47:03.302Z,98247.92
2019-01-20T00:49:50.258Z,98240.59
2019-01-20T00:52:37.860Z,98239.93
2019-01-20T00:55:25.379Z,98245.71
2019-01-20T00:58:12.309Z,98237.15
2019-01-20T01:00:59.563Z,98239.73
2019-01-20T01:03:46.606Z,98237.15
2019-01-20T01:06:34.304Z,98236.73
2019-01-20T01:09:21.485Z,98244.55
2019-01-20T01:12:10.504Z,98238.50
2019-01-20T01:14:57.879Z,98244.23
2019-01-20T01:17:44.698Z,98243.03
2019-01-20T01:20:32.228Z,98236.33
2019-01-20T01:23:19.512Z,98240.91
2019-01-20T01:26:07.176Z,98232.21
2019-01-20T01:28:54.557Z,98242.60
2019-01-20T01:31:41.498Z,98236.48
2019-01-20T01:34:28.352Z,98240.23
2019-01-20T01:37:15.842Z,98233.36
2019-01-20T01:40:03.362Z,98233.09
2019-01-20T01:42:50.690Z,98238.98
2019-01-20T01:45:37.657Z,98225.77
2019-01-20T01:48:24.844Z,98220.62
2019-01-20T01:51:12.249Z,98217.30
2019-01-20T01:53:59.451Z,98225.59
2019-01-20T01:56:46.647Z,98226.88
2019-01-20T01:59:34.103Z,98224.51
2019-01-20T02:02:21.095Z,98233.23
2019-01-20T02:05:09.673Z,98227.10
2019-01-20T02:07:57.118Z,98223.24
2019-01-20T02:10:44.103Z,98222.69
2019-01-20T02:13:31.174Z,98224.17
2019-01-20T02:16:18.442Z,98218.13
2019-01-20T02:19:05.617Z,98215.44
2019-01-20T02:21:52.908Z,98214.98
2019-01-20T02:24:40.078Z,98218.65
2019-01-20T02:27:27.353Z,98213.70
2019-01-20T02:30:20.149Z,98217.30
2019-01-20T02:33:07.789Z,98216.29
2019-01-20T02:35:54.644Z,98217.52
2019-01-20T02:38:41.864Z,98216.94
2019-01-20T02:41:29.240Z,98221.38
2019-01-20T02:44:16.837Z,98219.45
2019-01-20T02:47:04.147Z,98222.11
2019-01-20T02:49:51.615Z,98225.63
2019-01-20T02:52:38.889Z,98220.67
2019-01-20T02:55:26.161Z,98226.09
2019-01-20T02:58:13.299Z,98225.63
2019-01-20T03:01:00.709Z,98225.71
2019-01-20T03:03:48.198Z,98221.67
2019-01-20T03:06:35.397Z,98220.04
2019-01-20T03:09:22.923Z,98221.67
2019-01-20T03:12:10.410Z,98222.95
2019-01-20T03:14:57.662Z,98217.66
2019-01-20T03:17:44.830Z,98218.20
2019-01-20T03:20:32.137Z,98222.33
2019-01-20T03:23:19.271Z,98216.73
2019-01-20T03:26:06.521Z,98216.38
2019-01-20T03:28:53.894Z,98215.45
2019-01-20T03:31:41.489Z,98213.63
2019-01-20T03:34:28.847Z,98213.26
2019-01-20T03:37:16.272Z,98211.52
2019-01-20T03:40:03.436Z,98211.25
2019-01-20T03:42:50.756Z,98217.68
2019-01-20T03:45:38.267Z,98216.47
2019-01-20T03:48:25.798Z,98219.98
2019-01-20T03:51:12.833Z,98223.35
2019-01-20T03:54:00.502Z,98217.11
2019-01-20T03:56:47.632Z,98217.48
2019-01-20T03:59:35.014Z,98218.23
2019-01-20T04:02:23.211Z,98223.64
2019-01-20T04:05:10.997Z,98218.58
2019-01-20T04:07:58.361Z,98219.52
2019-01-20T04:10:45.451Z,98220.42
2019-01-20T04:13:32.629Z,98219.22
2019-01-20T04:16:19.593Z,98220.61
2019-01-20T04:19:06.924Z,98219.13
2019-01-20T04:21:53.963Z,98225.73
2019-01-20T04:24:40.854Z,98225.36
2019-01-20T04:27:28.217Z,98227.55
2019-01-20T04:30:17.854Z,98218.66
2019-01-20T04:33:05.014Z,98068.55
2019-01-20T04:35:52.408Z,98217.45
2019-01-20T04:38:39.661Z,98206.91
2019-01-20T04:41:26.967Z,98210.38
2019-01-20T04:44:13.907Z,98208.17
2019-01-20T04:47:01.149Z,98221.64
2019-01-20T04:49:48.469Z,98222.23
2019-01-20T04:52:35.687Z,98220.02
2019-01-20T04:55:23.312Z,98218.62
2019-01-20T04:58:10.661Z,98214.89
2019-01-20T05:00:57.514Z,98216.80
2019-01-20T05:03:44.692Z,98210.66
2019-01-20T05:06:32.053Z,98216.17
2019-01-20T05:09:19.605Z,98217.45
2019-01-20T05:12:07.038Z,98223.41
2019-01-20T05:14:54.355Z,98218.97
2019-01-20T05:17:41.940Z,98224.58
2019-01-20T05:20:29.095Z,98220.11
2019-01-20T05:23:15.977Z,98217.36
2019-01-20T05:26:02.890Z,98220.66
2019-01-20T05:28:50.004Z,98223.15
2019-01-20T05:31:37.137Z,98223.42
2019-01-20T05:34:24.316Z,98231.48
2019-01-20T05:37:11.903Z,98228.36
2019-01-20T05:39:59.263Z,98226.42
2019-01-20T05:42:46.792Z,98224.48
2019-01-20T05:45:34.091Z,98221.91
2019-01-20T05:48:21.056Z,98224.13
2019-01-20T05:51:08.265Z,98222.84
2019-01-20T05:53:55.432Z,98227.60
2019-01-20T05:56:42.979Z,98229.27
2019-01-20T05:59:30.202Z,98232.53
2019-01-20T06:02:17.622Z,98236.28
2019-01-20T06:05:05.956Z,98237.81
2019-01-20T06:07:53.269Z,98241.91
2019-01-20T06:10:40.462Z,98240.34
2019-01-20T06:13:28.023Z,98241.70
2019-01-20T06:16:15.618Z,98240.52
2019-01-20T06:19:02.853Z,98242.35
2019-01-20T06:21:49.763Z,98236.08
2019-01-20T06:24:37.009Z,98241.55
2019-01-20T06:27:24.272Z,98242.27
2019-01-20T06:30:25.944Z,98238.49
2019-01-20T06:33:13.230Z,98247.96
2019-01-20T06:36:00.454Z,98247.06
2019-01-20T06:38:47.661Z,98244.27
2019-01-20T06:41:35.000Z,98248.31
2019-01-20T06:44:22.376Z,98253.13
2019-01-20T06:47:09.571Z,98253.08
2019-01-20T06:49:57.162Z,98251.23
2019-01-20T06:52:44.430Z,98257.59
2019-01-20T06:55:31.637Z,98261.21
2019-01-20T06:58:19.068Z,98258.86
2019-01-20T07:01:06.096Z,98270.62
2019-01-20T07:03:53.360Z,98270.23
2019-01-20T07:06:40.784Z,98273.80
2019-01-20T07:09:28.019Z,98276.81
2019-01-20T07:12:15.019Z,98286.69
2019-01-20T07:15:02.390Z,98290.16
2019-01-20T07:17:49.326Z,98292.72
2019-01-20T07:20:36.635Z,98292.38
2019-01-20T07:23:23.863Z,98302.63
2019-01-20T07:26:11.248Z,98307.22
2019-01-20T07:28:58.429Z,98298.33
2019-01-20T07:31:45.663Z,98306.31
2019-01-20T07:34:33.266Z,98300.56
2019-01-20T07:37:20.455Z,98308.55
2019-01-20T07:40:10.674Z,98311.16
2019-01-20T07:42:58.181Z,98313.78
2019-01-20T07:45:45.674Z,98321.14
2019-01-20T07:48:32.861Z,98318.91
2019-01-20T07:51:19.785Z,98319.05
2019-01-20T07:54:07.038Z,98322.38
2019-01-20T07:56:54.259Z,98328.12
2019-01-20T07:59:41.557Z,98330.55
2019-01-20T08:02:29.042Z,98322.74
2019-01-20T08:05:16.076Z,98325.48
2019-01-20T08:08:03.313Z,98330.59
2019-01-20T08:10:52.178Z,98334.09
2019-01-20T08:13:39.473Z,98336.87
2019-01-20T08:16:26.862Z,98333.12
2019-01-20T08:19:14.108Z,98335.76
2019-01-20T08:22:01.544Z,98337.55
2019-01-20T08:24:48.548Z,98325.22
2019-01-20T08:27:35.933Z,98334.36
2019-01-20T08:30:25.145Z,98337.23
2019-01-20T08:33:12.388Z,98342.94
2019-01-20T08:35:59.855Z,98346.91
2019-01-20T08:38:47.115Z,98342.96
2019-01-20T08:41:34.384Z,98351.80
2019-01-20T08:44:23.964Z,98352.53
2019-01-20T08:47:12.700Z,98358.77
2019-01-20T08:50:00.193Z,98369.52
2019-01-20T08:52:47.326Z,98362.78
2019-01-20T08:55:34.802Z,98366.42
2019-01-20T08:58:22.219Z,98371.92
2019-01-20T09:01:09.801Z,98378.66
2019-01-20T09:03:57.205Z,98380.76
2019-01-20T09:06:44.520Z,98383.02
2019-01-20T09:09:31.653Z,98378.66
2019-01-20T09:12:19.048Z,98381.03
2019-01-20T09:15:08.292Z,98384.45
2019-01-20T09:17:55.601Z,98388.89
2019-01-20T09:20:42.881Z,98389.25
2019-01-20T09:23:30.250Z,98390.16
2019-01-20T09:26:17.258Z,98394.28
2019-01-20T09:29:04.448Z,98393.27
2019-01-20T09:31:51.534Z,98389.88
2019-01-20T09:34:38.758Z,98395.11
2019-01-20T09:37:25.781Z,98400.31
2019-01-20T09:40:17.954Z,98403.19
2019-01-20T09:43:05.092Z,98408.28
2019-01-20T09:45:53.176Z,98411.50
2019-01-20T09:48:40.487Z,98412.86
2019-01-20T09:51:28.421Z,98406.49
2019-01-20T09:54:15.618Z,98409.44
2019-01-20T09:57:03.402Z,98414.76
2019-01-20T09:59:52.199Z,98409.92
2019-01-20T10:02:39.711Z,98416.65
2019-01-20T10:05:27.310Z,98414.98
2019-01-20T10:08:14.572Z,98410.72
2019-01-20T10:11:01.805Z,98411.19
2019-01-20T10:13:54.800Z,98410.48
2019-01-20T10:16:38.208Z,98416.20
2019-01-20T10:19:25.429Z,98415.23
2019-01-20T10:22:12.563Z,98420.18
2019-01-20T10:24:59.816Z,98415.43
2019-01-20T10:27:47.539Z,98420.56
2019-01-20T10:30:36.623Z,98416.88
2019-01-20T10:33:23.827Z,98413.77
2019-01-20T10:36:35.822Z,98417.41
2019-01-20T10:39:24.972Z,98413.77
2019-01-20T10:42:11.978Z,98412.58
2019-01-20T10:44:59.240Z,98414.41
2019-01-20T10:47:46.557Z,98410.14
2019-01-20T10:50:33.982Z,98415.61
2019-01-20T10:53:48.074Z,98417.60
2019-01-20T10:56:35.252Z,98419.88
2019-01-20T10:59:22.689Z,98417.36
2019-01-20T11:02:09.679Z,98420.88
2019-01-20T11:04:57.538Z,98417.41
2019-01-20T11:07:45.179Z,98418.72
2019-01-20T11:10:32.709Z,98418.78
2019-01-20T11:13:19.806Z,98421.45
2019-01-20T11:16:07.354Z,98415.95
2019-01-20T11:18:54.583Z,98414.63
2019-01-20T11:21:41.506Z,98419.59
2019-01-20T11:24:29.011Z,98422.59
2019-01-20T11:27:15.887Z,98424.75
2019-01-20T11:30:04.859Z,98419.92
2019-01-20T11:32:52.263Z,98416.84
2019-01-20T11:35:39.517Z,98421.41
2019-01-20T11:38:26.753Z,98417.32
2019-01-20T11:41:14.024Z,98412.67
2019-01-20T11:44:01.633Z,98422.12
2019-01-20T11:46:48.842Z,98416.03
2019-01-20T11:49:36.246Z,98420.40
2019-01-20T11:52:23.429Z,98422.17
2019-01-20T11:55:13.938Z,98419.32
2019-01-20T11:58:01.080Z,98421.37
2019-01-20T12:00:48.509Z,98421.23
2019-01-20T12:03:37.150Z,98423.02
2019-01-20T12:06:24.410Z,98419.78
2019-01-20T12:09:11.940Z,98417.06
2019-01-20T12:11:59.190Z,98414.82
2019-01-20T12:14:46.481Z,98416.52
2019-01-20T12:17:33.471Z,98420.23
2019-01-20T12:20:20.731Z,98420.23
2019-01-20T12:23:07.686Z,98423.54
2019-01-20T12:25:54.646Z,98426.62
2019-01-20T12:28:41.846Z,98423.34
2019-01-20T12:31:29.267Z,98418.19
2019-01-20T12:34:16.446Z,98416.67
2019-01-20T12:37:03.643Z,98422.63
2019-01-20T12:39:50.909Z,98415.45
2019-01-20T12:42:38.103Z,98411.95
2019-01-20T12:45:25.096Z,98415.27
2019-01-20T12:48:12.604Z,98419.06
2019-01-20T12:51:00.628Z,98412.52
2019-01-20T12:53:48.063Z,98415.23
2019-01-20T12:56:35.329Z,98414.89
2019-01-20T12:59:22.689Z,98418.73
2019-01-20T13:02:09.877Z,98415.16
2019-01-20T13:04:57.281Z,98416.08
2019-01-20T13:07:44.552Z,98414.89
2019-01-20T13:10:32.081Z,98408.32
2019-01-20T13:13:19.325Z,98406.09
2019-01-20T13:16:07.071Z,98416.27
2019-01-20T13:18:54.471Z,98403.38
2019-01-20T13:21:41.897Z,98410.69
2019-01-20T13:24:29.383Z,98411.10
2019-01-20T13:27:16.227Z,98410.09
2019-01-20T13:30:03.686Z,98408.70
2019-01-20T13:32:50.958Z,98407.28
2019-01-20T13:35:38.471Z,98411.30
2019-01-20T13:38:26.219Z,98407.87
2019-01-20T13:41:13.807Z,98414.62
2019-01-20T13:44:01.223Z,98406.31
2019-01-20T13:46:48.670Z,98408.45
2019-01-20T13:49:36.036Z,98403.33
2019-01-20T13:52:23.565Z,98408.26
2019-01-20T13:55:12.961Z,98404.90
2019-01-20T13:58:00.183Z,98409.88
2019-01-20T14:00:47.787Z,98409.41
2019-01-20T14:03:35.073Z,98412.73
2019-01-20T14:06:22.458Z,98416.63
2019-01-20T14:09:10.437Z,98421.09
2019-01-20T14:11:57.442Z,98422.14
2019-01-20T14:14:44.632Z,98420.45
2019-01-20T14:17:31.786Z,98429.43
2019-01-20T14:20:27.062Z,98421.97
2019-01-20T14:23:14.213Z,98428.77
2019-01-20T14:26:01.592Z,98427.71
2019-01-20T14:28:48.753Z,98431.13
2019-01-20T14:31:35.598Z,98431.37
2019-01-20T14:34:23.253Z,98438.37
2019-01-20T14:37:10.447Z,98442.59
2019-01-20T14:39:57.896Z,98444.39
2019-01-20T14:42:44.955Z,98443.99
2019-01-20T14:45:32.239Z,98451.73
2019-01-20T14:48:19.519Z,98453.05
2019-01-20T14:51:06.808Z,98455.05
2019-01-20T14:53:54.910Z,98450.12
2019-01-20T14:56:42.441Z,98452.75
2019-01-20T14:59:29.772Z,98455.20
2019-01-20T15:02:17.215Z,98452.44
2019-01-20T15:05:05.742Z,98453.12
2019-01-20T15:07:53.052Z,98457.86
2019-01-20T15:10:40.319Z,98457.56
2019-01-20T15:13:27.752Z,98456.36
2019-01-20T15:16:15.069Z,98461.62
2019-01-20T15:19:02.310Z,98466.72
2019-01-20T15:21:49.606Z,98471.95
2019-01-20T15:24:36.822Z,98474.70
2019-01-20T15:27:24.323Z,98472.89
2019-01-20T15:30:14.886Z,98465.33
2019-01-20T15:33:03.758Z,98474.34
2019-01-20T15:35:51.074Z,98476.30
2019-01-20T15:38:38.608Z,98476.31
2019-01-20T15:41:25.933Z,98484.69
2019-01-20T15:44:13.136Z,98486.23
2019-01-20T15:47:00.312Z,98493.00
2019-01-20T15:49:47.799Z,98491.89
2019-01-20T15:52:35.006Z,98491.52
2019-01-20T15:55:22.615Z,98500.81
2019-01-20T15:58:10.141Z,98502.25
2019-01-20T16:00:57.397Z,98506.35
2019-01-20T16:03:44.572Z,98502.84
2019-01-20T16:06:31.797Z,98507.50
2019-01-20T16:09:19.058Z,98504.39
2019-01-20T16:12:06.113Z,98517.20
2019-01-20T16:14:53.291Z,98520.73
2019-01-20T16:17:40.512Z,98517.13
2019-01-20T16:20:28.323Z,98520.44
2019-01-20T16:23:15.668Z,98520.28
2019-01-20T16:26:03.494Z,98526.80
2019-01-20T16:28:50.974Z,98531.80
2019-01-20T16:31:39.854Z,98538.17
2019-01-20T16:34:27.318Z,98527.94
2019-01-20T16:37:14.305Z,98544.41
2019-01-20T16:40:01.450Z,98547.25
2019-01-20T16:42:48.927Z,98551.25
2019-01-20T16:45:42.441Z,98550.17
2019-01-20T16:48:29.777Z,98553.94
2019-01-20T16:51:17.148Z,98562.77
2019-01-20T16:54:04.465Z,98557.69
2019-01-20T16:56:52.004Z,98563.34
2019-01-20T16:59:38.966Z,98555.39
2019-01-20T17:02:26.482Z,98559.06
2019-01-20T17:05:14.262Z,98563.57
2019-01-20T17:08:01.600Z,98576.03
2019-01-20T17:10:48.947Z,98585.45
2019-01-20T17:13:36.006Z,98578.14
2019-01-20T17:16:23.568Z,98586.66
2019-01-20T17:19:17.233Z,98577.83
2019-01-20T17:21:59.408Z,98582.99
2019-01-20T17:24:46.853Z,98584.20
2019-01-20T17:27:34.361Z,98590.20
2019-01-20T17:30:26.287Z,98593.92
2019-01-20T17:33:13.971Z,98593.81
2019-01-20T17:36:01.043Z,98600.45
2019-01-20T17:38:49.414Z,98601.95
2019-01-20T17:41:36.879Z,98606.03
2019-01-20T17:44:24.216Z,98602.12
2019-01-20T17:47:11.556Z,98603.39
2019-01-20T17:49:58.956Z,98609.62
2019-01-20T17:52:46.344Z,98607.52
2019-01-20T17:55:33.517Z,98612.03
2019-01-20T17:58:20.614Z,98616.14
2019-01-20T18:01:07.731Z,98618.23
2019-01-20T18:03:55.257Z,98622.43
2019-01-20T18:06:42.552Z,98614.13
2019-01-20T18:09:29.568Z,98622.45
2019-01-20T18:12:16.552Z,98633.19
2019-01-20T18:15:03.721Z,98633.09
2019-01-20T18:17:51.165Z,98636.80
2019-01-20T18:20:38.324Z,98641.16
2019-01-20T18:23:25.237Z,98645.37
2019-01-20T18:26:12.446Z,98648.81
2019-01-20T18:28:59.627Z,98656.84
2019-01-20T18:31:47.002Z,98659.35
2019-01-20T18:34:33.902Z,98656.14
2019-01-20T18:37:21.588Z,98657.43
2019-01-20T18:40:19.691Z,98660.39
2019-01-20T18:43:07.175Z,98665.09
2019-01-20T18:46:01.414Z,98672.09
2019-01-20T18:48:43.355Z,98679.94
2019-01-20T18:51:30.860Z,98680.77
2019-01-20T18:54:18.207Z,98691.45
2019-01-20T18:57:05.532Z,98694.52
2019-01-20T18:59:52.533Z,98690.81
2019-01-20T19:02:39.807Z,98690.66
2019-01-20T19:05:26.723Z,98688.61
2019-01-20T19:08:13.705Z,98691.56
2019-01-20T19:11:00.942Z,98694.69
2019-01-20T19:13:48.202Z,98693.50
2019-01-20T19:16:35.401Z,98701.32
2019-01-20T19:19:22.373Z,98700.22
2019-01-20T19:22:10.127Z,98705.68
2019-01-20T19:24:57.284Z,98710.27
2019-01-20T19:27:44.914Z,98710.73
2019-01-20T19:30:34.624Z,98716.45
2019-01-20T19:33:21.669Z,98716.53
2019-01-20T19:36:08.864Z,98721.15
2019-01-20T19:38:56.356Z,98726.39
2019-01-20T19:41:43.683Z,98722.89
2019-01-20T19:44:31.237Z,98726.65
2019-01-20T19:47:18.442Z,98727.02
2019-01-20T19:50:08.987Z,98726.09
2019-01-20T19:52:55.879Z,98726.98
2019-01-20T19:55:43.246Z,98733.16
2019-01-20T19:58:30.510Z,98738.50
2019-01-20T20:01:17.388Z,98738.30
2019-01-20T20:04:04.881Z,98735.34
2019-01-20T20:06:52.197Z,98743.08
2019-01-20T20:09:39.311Z,98744.47
2019-01-20T20:12:26.650Z,98749.17
2019-01-20T20:15:17.008Z,98746.03
2019-01-20T20:18:04.710Z,98754.14
2019-01-20T20:20:51.932Z,98751.83
2019-01-20T20:23:39.523Z,98755.03
2019-01-20T20:26:26.978Z,98757.61
2019-01-20T20:29:14.494Z,98761.11
2019-01-20T20:32:01.822Z,98755.57
2019-01-20T20:34:53.652Z,98759.78
2019-01-20T20:37:38.719Z,98772.47
2019-01-20T20:40:26.058Z,98769.13
2019-01-20T20:43:13.277Z,98768.84
2019-01-20T20:46:00.681Z,98771.35
2019-01-20T20:48:47.806Z,98777.34
2019-01-20T20:51:35.093Z,98780.72
2019-01-20T20:54:23.234Z,98783.05
2019-01-20T20:57:10.870Z,98789.42
2019-01-20T20:59:58.062Z,98791.80
2019-01-20T21:02:46.452Z,98790.02
2019-01-20T21:05:33.963Z,98794.16
2019-01-20T21:08:21.119Z,98795.83
2019-01-20T21:11:08.371Z,98792.21
2019-01-20T21:13:55.632Z,98792.31
2019-01-20T21:16:46.973Z,98797.09
2019-01-20T21:19:34.322Z,98796.14
2019-01-20T21:22:21.538Z,98801.26
2019-01-20T21:25:10.576Z,98792.41
2019-01-20T21:27:58.246Z,98789.70
2019-01-20T21:30:45.656Z,98798.43
2019-01-20T21:33:32.870Z,98798.67
2019-01-20T21:36:20.354Z,98802.63
2019-01-20T21:39:07.950Z,98807.95
2019-01-20T21:41:54.892Z,98809.26
2019-01-20T21:44:42.069Z,98819.32
2019-01-20T21:47:28.999Z,98825.88
2019-01-20T21:50:24.533Z,98824.13
2019-01-20T21:53:11.866Z,98833.28
2019-01-20T21:55:58.789Z,98829.02
2019-01-20T21:58:46.054Z,98835.17
2019-01-20T22:01:33.101Z,98833.43
2019-01-20T22:04:20.293Z,98842.28
2019-01-20T22:07:07.264Z,98839.59
2019-01-20T22:09:55.859Z,98840.59
2019-01-20T22:12:42.965Z,98850.89
2019-01-20T22:15:30.280Z,98851.34
2019-01-20T22:18:17.719Z,98860.45
2019-01-20T22:21:06.176Z,98855.27
2019-01-20T22:23:53.290Z,98863.72
2019-01-20T22:26:40.738Z,98858.73
2019-01-20T22:29:28.197Z,98861.19
2019-01-20T22:32:15.526Z,98855.94
2019-01-20T22:35:03.851Z,98864.67
2019-01-20T22:37:51.035Z,98866.70
2019-01-20T22:40:38.037Z,98876.31
2019-01-20T22:43:25.380Z,98869.42
2019-01-20T22:46:12.362Z,98864.00
2019-01-20T22:48:59.821Z,98866.52
2019-01-20T22:51:47.185Z,98877.48
2019-01-20T22:54:35.388Z,98876.94
2019-01-20T22:57:22.400Z,98880.95
2019-01-20T23:00:18.733Z,98874.51
2019-01-20T23:03:06.400Z,98877.77
2019-01-20T23:05:53.642Z,98883.52
2019-01-20T23:08:40.733Z,98883.25
2019-01-20T23:11:27.986Z,98883.41
2019-01-20T23:14:15.219Z,98887.94
2019-01-20T23:17:07.798Z,98881.47
2019-01-20T23:19:52.056Z,98879.66
2019-01-20T23:22:39.583Z,98890.75
2019-01-20T23:25:26.836Z,98892.09
2019-01-20T23:28:14.598Z,98893.03
2019-01-20T23:31:02.041Z,98900.70
2019-01-20T23:33:49.284Z,98899.58
2019-01-20T23:36:36.906Z,98898.69
2019-01-20T23:39:23.892Z,98899.18
2019-01-20T23:42:11.327Z,98901.92
2019-01-20T23:44:59.099Z,98895.80
2019-01-20T23:47:46.279Z,98899.48
2019-01-20T23:50:33.727Z,98904.02
2019-01-20T23:53:20.609Z,98905.66
2019-01-20T23:56:08.199Z,98900.34
2019-01-20T23:58:55.157Z,98900.93
